Huvudsida
METAR-TAF:

METAR-TAF

Flygplatser :

Ljungbyhed, Sverige

latitud: 56-04N, longitud: 013-12E, höjd: 43 m

Aktuellt väderrapport

Denna rapport gjordes för 15 minuter sedan, klockan 13:50 UTC
Vind 21 kt från väst i byarna ända upp till 31 kt
Temperatur 20°C
Fuktighet 46%
Tryck 1016 hPa
Sikt 10 km eller mer
Spridda moln på en höjd av 4400 ft

METAR: ESTL 191350Z 28021G31KT 9999 SCT044 20/08 Q1016

Tid: 16:05 (14:05 UTC)

Väderprognos

Denna rapport gjordes för 3 timmar och 11 minuter sedan, klockan 10:54 UTC
Prognos gäller från 19 kl. 12 UTC till 19 kl. 15 UTC
Vind 15 kt från väst
Sikt 10 km eller mer
Spridda moln på en höjd av 2500 ft
Temporärt
från 19 kl. 12 UTC till 19 kl. 15 UTC
Vind 20 kt från väst i byarna ända upp till 32 kt

TAF: ESTL 191054Z 1912/1915 26015KT 9999 SCT025 TEMPO 1912/1915 27020G32KT

Aktuella väderrapporter och prognoser från 4000 flygplatser (METAR- och TAF-rapporter).

De tillgängliga stationerna syns som gula och röda prickar på kartan.

För musen över prickarna för att se namnen på stationerna.

Klicka sedan för att få väderrapporter och prognoser.

För att ändra kartan: Klicka på de gröna knapparna med ett svart kors på för att zooma in; den gröna knappen med ett streck på för att zooma ut; eller på de gröna pilarna för angränsande kartor.


METAR-TAF: